Time;durP1;ratioP1;P1;durP2;ratioP2;P2;SDS_P1;SDS_P2;PMS_P1;PMS_P2;Temp;Humidity;BMP_temperature;BMP_pressure;BME280_temperature;BME280_humidity;BME280_pressure;Samples;Min_cycle;Max_cycle;Signal;HPM_P1;HPM_P2
2022/04/17 00:00:27;;;;;;;7.75;5.88;;;7.10;95.80;;;;;;5105729;27;20039;-79
2022/04/17 00:02:53;;;;;;;8.23;5.63;;;7.00;96.00;;;;;;5091844;27;20093;-78
2022/04/17 00:05:19;;;;;;;7.57;5.50;;;6.90;96.40;;;;;;5074934;28;20043;-77
2022/04/17 00:07:45;;;;;;;8.27;5.70;;;6.90;96.60;;;;;;5125452;27;20579;-79
2022/04/17 00:10:12;;;;;;;8.65;6.28;;;6.80;96.90;;;;;;5074158;28;20107;-79
2022/04/17 00:12:39;;;;;;;7.68;5.78;;;6.80;97.20;;;;;;5091818;27;20039;-78
2022/04/17 00:15:06;;;;;;;8.27;6.10;;;6.70;97.40;;;;;;5104611;27;20059;-79
2022/04/17 00:17:32;;;;;;;7.18;5.97;;;6.60;97.70;;;;;;5094097;27;20085;-79
2022/04/17 00:19:58;;;;;;;7.13;5.72;;;6.60;97.80;;;;;;5111106;27;20077;-79
2022/04/17 00:22:25;;;;;;;6.85;5.55;;;6.50;98.00;;;;;;5110761;27;20038;-79
2022/04/17 00:24:52;;;;;;;7.43;5.82;;;6.50;98.60;;;;;;5110805;27;20133;-78
2022/04/17 00:27:18;;;;;;;8.82;6.82;;;6.40;98.30;;;;;;5123484;27;20046;-79
2022/04/17 00:29:44;;;;;;;6.95;5.65;;;6.40;98.50;;;;;;5106645;27;20048;-79
2022/04/17 00:32:12;;;;;;;9.23;6.50;;;6.50;98.70;;;;;;5106872;28;20378;-79
2022/04/17 00:34:38;;;;;;;9.00;6.10;;;6.40;98.80;;;;;;5077355;27;20043;-79
2022/04/17 00:37:05;;;;;;;8.05;6.07;;;6.40;98.90;;;;;;5077085;27;20063;-79
2022/04/17 00:39:31;;;;;;;9.48;6.55;;;6.40;99.20;;;;;;5123950;27;20071;-78
2022/04/17 00:41:59;;;;;;;8.30;6.45;;;6.30;99.60;;;;;;5109858;27;20054;-78
2022/04/17 00:44:26;;;;;;;8.80;6.40;;;6.30;99.70;;;;;;5110016;27;20061;-78
2022/04/17 00:46:52;;;;;;;8.27;6.28;;;6.30;99.90;;;;;;5097857;27;20050;-79
2022/04/17 00:49:17;;;;;;;8.73;6.68;;;6.20;99.90;;;;;;5113036;27;20129;-79
2022/04/17 00:51:46;;;;;;;8.25;7.00;;;6.20;99.90;;;;;;5114111;27;20087;-79
2022/04/17 00:54:13;;;;;;;8.93;7.18;;;6.20;99.90;;;;;;5114715;27;20053;-79
2022/04/17 00:56:40;;;;;;;9.50;6.78;;;6.10;99.90;;;;;;5133327;27;20054;-80
2022/04/17 00:59:09;;;;;;;9.07;6.80;;;6.10;99.90;;;;;;5102023;27;20098;-81
2022/04/17 01:01:36;;;;;;;8.38;7.15;;;6.10;99.90;;;;;;5114859;27;20346;-78
2022/04/17 01:04:03;;;;;;;9.07;6.97;;;6.10;99.90;;;;;;5115142;27;20506;-79
2022/04/17 01:06:32;;;;;;;8.65;6.90;;;6.10;99.90;;;;;;5114804;27;20042;-80
2022/04/17 01:09:00;;;;;;;8.40;6.97;;;6.10;99.90;;;;;;5114026;27;20070;-80
2022/04/17 01:11:26;;;;;;;9.30;7.25;;;6.00;99.90;;;;;;5131263;27;20408;-79
2022/04/17 01:13:53;;;;;;;10.50;7.70;;;6.00;99.90;;;;;;5130563;27;20053;-80
2022/04/17 01:16:23;;;;;;;8.00;7.10;;;6.00;99.90;;;;;;5150369;27;20042;-79
2022/04/17 01:18:57;;;;;;;8.65;7.00;;;6.00;99.90;;;;;;5131879;27;20108;-79
2022/04/17 01:21:25;;;;;;;8.98;7.88;;;5.90;99.90;;;;;;5150387;27;20050;-79
2022/04/17 01:29:22;;;;;;;10.60;7.72;;;5.90;99.90;;;;;;5150049;27;20134;-79
2022/04/17 01:31:48;;;;;;;9.48;7.53;;;5.90;99.90;;;;;;5150863;27;20058;-79
2022/04/17 01:34:19;;;;;;;9.75;7.65;;;5.90;99.90;;;;;;5121154;27;20026;-80
2022/04/17 01:36:45;;;;;;;;;;;5.90;99.90;;;;;;5130125;27;20601;-79
2022/04/17 01:39:12;;;;;;;8.52;7.30;;;5.90;99.90;;;;;;5149543;27;19958;-80
2022/04/17 01:41:38;;;;;;;8.88;7.38;;;5.80;99.90;;;;;;5149937;27;20041;-80
2022/04/17 01:44:06;;;;;;;8.98;7.30;;;5.80;99.90;;;;;;5150421;27;20046;-79
2022/04/17 01:46:35;;;;;;;8.77;7.30;;;5.80;99.90;;;;;;5110994;27;20067;-79
2022/04/17 01:49:04;;;;;;;8.93;8.00;;;5.70;99.90;;;;;;5110035;27;20043;-80
2022/04/17 01:51:38;;;;;;;9.02;7.72;;;5.70;99.90;;;;;;5129703;27;20053;-79
2022/04/17 01:54:06;;;;;;;9.95;8.20;;;5.60;99.90;;;;;;5132666;27;20489;-80
2022/04/17 01:56:32;;;;;;;10.38;8.13;;;5.60;99.90;;;;;;5130558;27;20150;-79
2022/04/17 01:58:58;;;;;;;10.30;8.23;;;5.60;99.90;;;;;;5104941;27;20054;-79
2022/04/17 02:01:24;;;;;;;10.20;8.50;;;5.60;99.90;;;;;;5119247;27;20038;-81
2022/04/17 02:03:51;;;;;;;9.90;8.88;;;5.60;99.90;;;;;;5129412;27;20496;-80
2022/04/17 02:06:17;;;;;;;10.73;8.70;;;5.60;99.90;;;;;;5127899;27;20051;-81
2022/04/17 02:08:44;;;;;;;10.82;9.00;;;5.60;99.90;;;;;;5127598;27;20046;-80
2022/04/17 02:11:10;;;;;;;11.68;8.98;;;5.60;99.90;;;;;;5127240;27;20035;-80
2022/04/17 02:13:36;;;;;;;10.32;8.70;;;5.40;99.90;;;;;;5126724;27;20106;-79
2022/04/17 02:16:06;;;;;;;10.85;8.75;;;5.50;99.90;;;;;;5145619;27;20221;-80
2022/04/17 02:18:32;;;;;;;11.38;8.88;;;5.50;99.90;;;;;;5145042;27;20042;-79
2022/04/17 02:20:59;;;;;;;9.45;8.55;;;5.50;99.90;;;;;;5145098;27;20123;-80
2022/04/17 02:23:25;;;;;;;9.88;8.55;;;5.50;99.90;;;;;;5144694;27;20039;-80
2022/04/17 02:25:50;;;;;;;12.35;9.48;;;5.40;99.90;;;;;;5109770;27;20064;-80
2022/04/17 02:28:19;;;;;;;10.23;8.88;;;5.50;99.90;;;;;;5079888;27;20051;-80
2022/04/17 02:30:45;;;;;;;10.75;9.27;;;5.40;99.90;;;;;;5124276;27;20497;-79
2022/04/17 02:33:10;;;;;;;12.38;9.35;;;5.50;99.90;;;;;;5089145;27;20047;-79
2022/04/17 02:35:37;;;;;;;10.15;9.00;;;5.40;99.90;;;;;;5120148;27;20078;-80
2022/04/17 02:38:04;;;;;;;9.88;8.88;;;5.40;99.90;;;;;;5126204;27;20035;-79
2022/04/17 02:40:31;;;;;;;11.40;9.30;;;5.40;99.90;;;;;;5126204;27;20057;-79
2022/04/17 02:42:58;;;;;;;10.52;9.13;;;5.40;99.90;;;;;;5144693;27;20043;-80
2022/04/17 02:45:24;;;;;;;10.52;9.40;;;5.30;99.90;;;;;;5126037;27;20580;-80
2022/04/17 02:47:51;;;;;;;9.75;8.75;;;5.30;99.90;;;;;;5126393;27;20050;-80
2022/04/17 02:50:23;;;;;;;12.05;9.60;;;5.20;99.90;;;;;;5144599;27;20045;-80
2022/04/17 02:52:49;;;;;;;10.90;9.18;;;5.20;99.90;;;;;;5109094;27;20054;-80
2022/04/17 02:55:15;;;;;;;12.77;9.60;;;5.20;99.90;;;;;;5106279;27;20589;-80
2022/04/17 02:57:41;;;;;;;10.93;9.50;;;5.20;99.90;;;;;;5104984;27;20145;-79
2022/04/17 03:00:10;;;;;;;12.43;9.48;;;5.20;99.90;;;;;;5075962;27;20373;-80
2022/04/17 03:05:39;;;;;;;11.85;9.65;;;5.30;99.90;;;;;;5112683;27;20065;-80
2022/04/17 03:08:07;;;;;;;10.75;9.55;;;5.10;99.90;;;;;;5079498;27;20532;-80
2022/04/17 03:10:37;;;;;;;9.80;8.68;;;5.10;99.90;;;;;;5126952;27;20042;-80
2022/04/17 03:13:06;;;;;;;10.63;9.52;;;5.10;99.90;;;;;;5126895;27;20045;-80
2022/04/17 03:15:38;;;;;;;10.98;9.77;;;5.00;99.90;;;;;;5127059;27;20183;-80
2022/04/17 03:18:08;;;;;;;10.68;9.43;;;5.00;99.90;;;;;;5093614;27;20046;-80
2022/04/17 03:20:34;;;;;;;12.27;10.07;;;5.00;99.90;;;;;;5110406;27;20058;-80
2022/04/17 03:23:01;;;;;;;11.15;9.52;;;5.00;99.90;;;;;;5106679;27;20443;-79
2022/04/17 03:25:27;;;;;;;10.57;9.35;;;5.00;99.90;;;;;;5090020;27;20103;-79
2022/04/17 03:27:53;;;;;;;12.20;10.02;;;5.00;99.90;;;;;;5106044;27;20390;-79
2022/04/17 03:30:19;;;;;;;10.68;9.50;;;4.90;99.90;;;;;;5100495;27;20070;-79
2022/04/17 03:32:49;;;;;;;10.82;9.68;;;4.90;99.90;;;;;;5105979;27;20087;-79
2022/04/17 03:35:17;;;;;;;11.93;9.15;;;4.90;99.90;;;;;;5122907;27;20039;-80
2022/04/17 03:37:44;;;;;;;13.05;9.85;;;4.80;99.90;;;;;;5122678;27;20111;-79
2022/04/17 03:40:11;;;;;;;12.82;10.63;;;4.80;99.90;;;;;;5125156;27;20153;-80
2022/04/17 03:42:38;;;;;;;10.98;9.88;;;4.80;99.90;;;;;;5125868;27;20346;-80
2022/04/17 03:45:09;;;;;;;10.88;9.50;;;4.70;99.90;;;;;;5109724;27;20042;-80
2022/04/17 03:47:35;;;;;;;11.18;9.40;;;4.80;99.90;;;;;;5127042;27;20057;-79
2022/04/17 03:50:05;;;;;;;10.88;9.63;;;4.70;99.90;;;;;;5144557;27;20046;-80
2022/04/17 03:52:50;;;;;;;11.60;10.10;;;4.70;99.90;;;;;;5092234;27;20088;-80
2022/04/17 03:55:16;;;;;;;11.07;9.82;;;4.60;99.90;;;;;;5126829;27;20708;-79
2022/04/17 03:57:42;;;;;;;11.40;9.95;;;4.60;99.90;;;;;;5118775;27;20109;-79
2022/04/17 04:00:12;;;;;;;11.65;9.65;;;4.60;99.90;;;;;;5106595;27;20116;-79
2022/04/17 04:02:42;;;;;;;;;;;4.60;99.90;;;;;;5102350;27;20051;-79
2022/04/17 04:05:09;;;;;;;11.90;9.50;;;4.50;99.90;;;;;;5106907;27;19923;-78
2022/04/17 04:07:39;;;;;;;12.60;10.45;;;4.50;99.90;;;;;;5072766;27;20047;-77
2022/04/17 04:10:09;;;;;;;12.15;9.93;;;4.50;99.90;;;;;;5112973;27;20047;-78
2022/04/17 04:12:35;;;;;;;13.05;9.30;;;4.40;99.90;;;;;;5096397;27;20504;-78
2022/04/17 04:15:02;;;;;;;11.60;10.23;;;4.40;99.90;;;;;;5085047;27;20112;-78
2022/04/17 04:17:29;;;;;;;11.70;10.15;;;4.40;99.90;;;;;;5074426;27;20102;-78
2022/04/17 04:19:55;;;;;;;11.77;10.43;;;4.40;99.90;;;;;;5067867;27;20075;-77
2022/04/17 04:22:21;;;;;;;12.48;10.40;;;4.40;99.90;;;;;;5106924;27;20085;-78
2022/04/17 04:24:47;;;;;;;12.57;10.25;;;4.30;99.90;;;;;;5089074;27;20047;-77
2022/04/17 04:30:01;;;;;;;12.17;9.90;;;4.40;99.90;;;;;;5113322;27;20338;-79
2022/04/17 04:32:27;;;;;;;12.63;10.75;;;4.40;99.90;;;;;;5096390;27;20047;-79
2022/04/17 04:34:57;;;;;;;13.98;10.77;;;4.40;99.90;;;;;;5080476;27;20341;-80
2022/04/17 04:37:23;;;;;;;11.10;9.90;;;4.40;99.90;;;;;;5112158;27;20638;-79
2022/04/17 04:39:49;;;;;;;12.13;10.70;;;4.50;99.90;;;;;;5104580;28;20125;-79
2022/04/17 04:42:14;;;;;;;12.02;10.60;;;4.50;99.90;;;;;;5086548;28;20050;-77
2022/04/17 04:44:40;;;;;;;11.98;10.32;;;4.40;99.90;;;;;;5104637;28;20343;-78
2022/04/17 04:47:06;;;;;;;11.13;9.98;;;4.50;99.90;;;;;;5087318;27;20127;-79
2022/04/17 04:49:36;;;;;;;10.87;9.70;;;4.50;99.90;;;;;;5096087;28;20477;-79
2022/04/17 04:52:03;;;;;;;12.05;10.10;;;4.50;99.90;;;;;;5066564;27;20142;-79
2022/04/17 04:54:36;;;;;;;11.70;10.13;;;4.50;99.90;;;;;;5089982;27;20215;-80
2022/04/17 04:57:02;;;;;;;13.02;10.10;;;4.40;99.90;;;;;;5105147;27;20047;-79
2022/04/17 04:59:29;;;;;;;12.38;10.25;;;4.40;99.90;;;;;;5104969;27;20365;-79
2022/04/17 05:01:55;;;;;;;10.80;9.32;;;4.50;99.90;;;;;;5103944;27;20055;-80
2022/04/17 05:04:21;;;;;;;13.60;10.07;;;4.50;99.90;;;;;;5105514;27;20043;-78
2022/04/17 05:06:47;;;;;;;13.10;10.85;;;4.60;99.90;;;;;;5123024;27;20285;-79
2022/04/17 05:09:13;;;;;;;11.20;9.88;;;4.70;99.90;;;;;;5104580;27;20516;-79
2022/04/17 05:11:39;;;;;;;11.98;10.38;;;4.70;99.90;;;;;;5122842;27;20046;-78
2022/04/17 05:14:06;;;;;;;12.20;10.80;;;4.70;99.90;;;;;;5123836;27;20055;-79
2022/04/17 05:16:33;;;;;;;13.05;9.80;;;4.70;99.90;;;;;;5121984;27;20051;-79
2022/04/17 05:19:42;;;;;;;12.65;10.85;;;4.70;99.90;;;;;;5109219;27;20042;-78
2022/04/17 05:21:57;;;;;;;12.73;10.65;;;4.80;99.90;;;;;;5119450;27;20063;-79
2022/04/17 05:24:23;;;;;;;13.38;10.55;;;4.90;99.90;;;;;;5124875;27;20157;-79
2022/04/17 05:26:48;;;;;;;16.23;10.77;;;5.10;99.90;;;;;;5112659;27;20293;-79
2022/04/17 05:29:14;;;;;;;12.60;10.20;;;5.20;99.90;;;;;;5091924;27;20043;-79
2022/04/17 05:31:40;;;;;;;13.25;11.10;;;5.30;99.90;;;;;;5092143;27;20127;-78
2022/04/17 05:34:06;;;;;;;12.85;10.45;;;5.40;99.90;;;;;;5112612;27;20054;-79
2022/04/17 05:36:32;;;;;;;12.73;9.93;;;5.50;99.90;;;;;;5129919;27;20084;-79
2022/04/17 05:39:00;;;;;;;13.35;10.85;;;5.60;99.90;;;;;;5123977;27;20432;-78
2022/04/17 05:41:27;;;;;;;13.65;11.63;;;5.70;99.90;;;;;;5129090;27;20586;-79
2022/04/17 05:43:56;;;;;;;12.20;10.45;;;5.80;99.90;;;;;;5095098;27;20059;-78
2022/04/17 05:46:22;;;;;;;11.35;10.15;;;5.90;99.90;;;;;;5129320;27;20047;-79
2022/04/17 05:48:47;;;;;;;12.23;10.48;;;5.90;99.90;;;;;;5112442;27;20100;-77
2022/04/17 05:51:14;;;;;;;11.73;10.52;;;6.00;99.90;;;;;;5093370;27;20035;-77
2022/04/17 05:53:42;;;;;;;12.88;10.77;;;6.10;99.90;;;;;;5111443;27;20049;-77
2022/04/17 05:56:08;;;;;;;12.65;10.35;;;6.20;99.90;;;;;;5127614;27;20506;-78
2022/04/17 05:58:34;;;;;;;12.90;10.50;;;6.30;99.90;;;;;;5109108;27;20146;-77
2022/04/17 06:01:02;;;;;;;12.23;10.98;;;6.30;99.90;;;;;;5108160;27;20423;-77
2022/04/17 06:03:31;;;;;;;12.25;10.75;;;6.40;99.90;;;;;;5080268;27;20153;-79
2022/04/17 06:05:56;;;;;;;13.07;11.10;;;6.50;99.90;;;;;;5129093;27;20141;-77
2022/04/17 06:08:24;;;;;;;11.52;10.32;;;6.50;99.90;;;;;;5094439;27;20425;-77
2022/04/17 06:10:50;;;;;;;12.60;10.95;;;6.60;99.90;;;;;;5127221;27;20107;-77
2022/04/17 06:13:16;;;;;;;12.77;10.60;;;6.70;99.90;;;;;;5108302;27;20062;-78
2022/04/17 06:15:42;;;;;;;11.50;10.18;;;6.80;99.90;;;;;;5108262;27;20491;-78
2022/04/17 06:18:08;;;;;;;14.07;11.65;;;6.80;99.90;;;;;;5108756;27;20166;-77
2022/04/17 06:20:34;;;;;;;11.88;10.10;;;6.90;99.90;;;;;;5108028;27;20118;-78
2022/04/17 06:23:00;;;;;;;13.00;10.95;;;7.00;99.90;;;;;;5102614;27;20046;-79
2022/04/17 06:25:26;;;;;;;12.18;10.60;;;7.00;99.90;;;;;;5112436;27;20046;-78
2022/04/17 06:27:52;;;;;;;12.00;10.13;;;7.10;99.90;;;;;;5095906;27;20099;-78
2022/04/17 06:30:20;;;;;;;13.63;10.43;;;7.20;99.90;;;;;;5093924;27;20050;-78
2022/04/17 06:32:46;;;;;;;12.10;10.77;;;7.30;99.90;;;;;;5148132;27;20404;-78
2022/04/17 06:35:14;;;;;;;12.13;10.48;;;7.40;99.90;;;;;;5113245;27;20051;-77
2022/04/17 06:37:51;;;;;;;13.43;10.55;;;7.50;99.90;;;;;;5112394;27;20053;-78
2022/04/17 06:40:18;;;;;;;12.30;10.98;;;7.60;99.90;;;;;;5091960;27;20051;-78
2022/04/17 06:42:48;;;;;;;12.85;11.43;;;7.70;99.90;;;;;;5096647;27;20212;-78
2022/04/17 06:45:15;;;;;;;11.77;10.35;;;7.70;99.90;;;;;;5092171;27;20421;-77
2022/04/17 06:47:42;;;;;;;12.65;11.15;;;7.80;99.90;;;;;;5108971;27;20059;-78
2022/04/17 06:50:08;;;;;;;11.80;10.48;;;7.90;99.90;;;;;;5109191;27;20055;-79
2022/04/17 06:52:34;;;;;;;11.95;10.20;;;7.90;99.90;;;;;;5125671;27;20127;-77
2022/04/17 06:55:00;;;;;;;12.77;10.57;;;8.00;99.90;;;;;;5127954;27;20039;-79
2022/04/17 06:57:33;;;;;;;12.60;10.82;;;8.10;99.90;;;;;;5121345;27;20073;-78
2022/04/17 07:00:09;;;;;;;11.77;10.50;;;8.20;99.90;;;;;;5098158;27;20065;-79
2022/04/17 07:02:36;;;;;;;12.15;10.85;;;8.30;99.90;;;;;;5116258;27;20498;-78
2022/04/17 07:05:05;;;;;;;11.18;9.98;;;8.40;99.90;;;;;;5106770;27;20054;-79
2022/04/17 07:07:31;;;;;;;13.35;9.98;;;8.50;99.90;;;;;;5092725;27;20095;-78
2022/04/17 07:09:57;;;;;;;12.63;10.52;;;8.60;99.90;;;;;;5074807;27;20047;-78
2022/04/17 07:12:23;;;;;;;11.98;10.27;;;8.70;99.90;;;;;;5108703;27;20039;-78
2022/04/17 07:14:50;;;;;;;11.75;9.93;;;8.80;99.30;;;;;;5091746;27;20058;-78
2022/04/17 07:17:15;;;;;;;12.50;10.38;;;8.90;99.50;;;;;;5092452;27;20051;-77
2022/04/17 07:19:41;;;;;;;11.90;10.25;;;9.00;99.00;;;;;;5091605;27;20136;-79
2022/04/17 07:22:07;;;;;;;14.90;10.30;;;9.10;98.70;;;;;;5108360;27;20031;-78
2022/04/17 07:24:33;;;;;;;12.30;10.15;;;9.30;99.00;;;;;;5074581;27;20155;-79
2022/04/17 07:27:01;;;;;;;10.82;9.68;;;9.50;98.30;;;;;;5100620;27;20061;-79
2022/04/17 07:29:27;;;;;;;11.00;9.70;;;9.60;97.20;;;;;;5110009;27;20054;-79
2022/04/17 07:31:53;;;;;;;12.38;9.93;;;9.80;96.40;;;;;;5078089;27;20091;-78
2022/04/17 07:34:22;;;;;;;11.50;9.23;;;9.90;95.20;;;;;;5128226;27;20369;-78
2022/04/17 07:36:52;;;;;;;11.40;9.07;;;10.10;94.30;;;;;;5146905;27;20413;-77
2022/04/17 07:39:19;;;;;;;10.65;9.55;;;10.20;93.60;;;;;;5124952;27;20051;-79
2022/04/17 07:41:47;;;;;;;11.30;9.32;;;10.30;92.70;;;;;;5107806;27;20067;-79
2022/04/17 07:44:14;;;;;;;9.52;8.43;;;10.40;92.20;;;;;;5089908;27;20058;-79
2022/04/17 07:46:46;;;;;;;11.68;9.82;;;10.50;91.90;;;;;;5091597;27;20047;-76
2022/04/17 07:49:12;;;;;;;10.15;8.70;;;10.60;90.20;;;;;;5107536;27;20509;-79
2022/04/17 07:51:38;;;;;;;9.95;8.38;;;10.80;91.00;;;;;;5083293;27;20049;-79
2022/04/17 07:54:04;;;;;;;10.30;8.80;;;10.90;91.00;;;;;;5107568;27;20045;-78
2022/04/17 07:56:30;;;;;;;10.57;8.65;;;11.10;90.70;;;;;;5099263;27;20074;-78
2022/04/17 07:58:56;;;;;;;11.00;8.60;;;11.20;88.40;;;;;;5093849;27;20493;-79
2022/04/17 08:01:22;;;;;;;11.80;8.40;;;11.30;87.20;;;;;;5089374;27;20045;-77
2022/04/17 08:03:48;;;;;;;11.82;8.30;;;11.40;85.10;;;;;;5094902;27;20130;-79
2022/04/17 08:06:17;;;;;;;10.35;8.48;;;11.50;81.50;;;;;;5090478;27;20154;-79
2022/04/17 08:08:44;;;;;;;8.85;7.82;;;11.70;83.70;;;;;;5107552;28;20382;-75
2022/04/17 08:11:11;;;;;;;11.10;7.80;;;11.80;82.30;;;;;;5119084;27;20099;-77
2022/04/17 08:13:38;;;;;;;10.80;8.40;;;11.90;77.40;;;;;;5128105;27;20049;-79
2022/04/17 08:16:04;;;;;;;9.35;7.95;;;11.90;76.50;;;;;;5110752;27;20061;-77
2022/04/17 08:18:31;;;;;;;8.95;8.02;;;12.00;76.20;;;;;;5128591;27;20651;-78
2022/04/17 08:20:57;;;;;;;10.32;8.27;;;12.10;76.40;;;;;;5110883;27;20531;-78
2022/04/17 08:23:23;;;;;;;9.18;7.50;;;12.20;76.70;;;;;;5107498;28;20046;-78
2022/04/17 08:25:50;;;;;;;10.82;8.10;;;12.40;73.50;;;;;;5090909;28;20044;-77
2022/04/17 08:28:16;;;;;;;10.70;7.68;;;12.50;72.40;;;;;;5107726;28;20051;-77
2022/04/17 08:30:42;;;;;;;11.00;9.95;;;12.60;71.70;;;;;;5106809;28;20088;-79
2022/04/17 08:33:08;;;;;;;8.50;6.63;;;12.70;70.60;;;;;;5090364;28;20043;-76
2022/04/17 08:35:35;;;;;;;8.90;7.57;;;12.80;67.20;;;;;;5126107;28;20047;-77
2022/04/17 08:38:02;;;;;;;9.18;6.32;;;12.80;66.70;;;;;;5109149;27;20489;-78
2022/04/17 08:40:29;;;;;;;11.52;7.68;;;12.90;65.90;;;;;;5127888;27;20091;-77
2022/04/17 08:42:56;;;;;;;10.93;7.63;;;12.90;65.20;;;;;;5128120;27;20107;-79
2022/04/17 08:45:23;;;;;;;8.18;5.25;;;12.90;67.10;;;;;;5111854;27;20138;-79
2022/04/17 08:47:51;;;;;;;9.07;7.07;;;13.00;63.90;;;;;;5112044;27;20161;-78
2022/04/17 08:50:19;;;;;;;8.43;6.70;;;13.10;64.70;;;;;;5094572;27;20088;-75
2022/04/17 08:52:47;;;;;;;8.50;6.63;;;13.20;63.80;;;;;;5106435;28;20126;-79
2022/04/17 08:55:13;;;;;;;8.15;6.30;;;13.40;63.40;;;;;;5090971;28;20529;-79
2022/04/17 08:57:39;;;;;;;6.07;5.35;;;13.40;61.60;;;;;;5126332;27;20497;-79
2022/04/17 09:00:08;;;;;;;7.70;6.10;;;13.50;62.50;;;;;;5117910;27;20076;-79
2022/04/17 09:02:38;;;;;;;7.78;5.70;;;13.50;59.60;;;;;;5131876;27;20442;-79
2022/04/17 09:05:10;;;;;;;8.02;5.97;;;13.60;60.20;;;;;;5131790;27;20047;-80
2022/04/17 09:07:41;;;;;;;8.32;6.30;;;13.70;60.00;;;;;;5131623;27;20484;-79
2022/04/17 09:10:07;;;;;;;8.45;6.15;;;13.80;62.10;;;;;;5110781;27;20159;-80
2022/04/17 09:12:34;;;;;;;8.40;6.38;;;13.90;61.90;;;;;;5094208;27;20430;-80
2022/04/17 09:15:00;;;;;;;7.78;6.15;;;14.00;59.10;;;;;;5110883;27;20055;-79
2022/04/17 09:17:36;;;;;;;8.50;6.50;;;14.00;58.80;;;;;;5093642;27;20051;-78
2022/04/17 09:20:04;;;;;;;9.77;6.85;;;14.10;60.00;;;;;;5094794;27;20055;-78
2022/04/17 09:22:51;;;;;;;8.18;6.60;;;14.20;59.00;;;;;;5114497;27;20039;-78
2022/04/17 09:25:16;;;;;;;7.72;6.32;;;14.30;58.60;;;;;;5110474;27;20092;-80
2022/04/17 09:28:02;;;;;;;10.18;6.55;;;14.40;59.70;;;;;;5094074;27;20062;-79
2022/04/17 09:30:34;;;;;;;8.35;5.60;;;14.60;58.70;;;;;;5109588;27;20051;-79
2022/04/17 09:33:09;;;;;;;8.02;6.57;;;14.70;58.80;;;;;;5094560;27;20051;-79
2022/04/17 09:35:36;;;;;;;7.65;6.60;;;14.80;57.80;;;;;;5093889;27;20528;-80
2022/04/17 09:38:06;;;;;;;7.35;5.57;;;14.90;57.90;;;;;;5112842;27;20054;-76
2022/04/17 09:40:36;;;;;;;7.70;5.68;;;14.90;56.20;;;;;;5130883;27;20533;-78
2022/04/17 09:43:12;;;;;;;10.40;7.28;;;15.00;56.50;;;;;;5094163;27;20050;-79
2022/04/17 09:46:00;;;;;;;8.38;6.35;;;15.00;57.40;;;;;;5110594;27;20061;-78
2022/04/17 09:48:39;;;;;;;7.47;6.03;;;15.20;57.00;;;;;;5109934;27;20054;-78
2022/04/17 09:51:25;;;;;;;7.93;5.90;;;15.20;56.80;;;;;;5094011;27;20865;-79
2022/04/17 09:54:05;;;;;;;8.75;5.93;;;15.40;57.20;;;;;;5110062;27;20054;-79
2022/04/17 09:56:32;;;;;;;9.52;6.13;;;15.60;56.10;;;;;;5098311;27;20486;-79
2022/04/17 09:59:17;;;;;;;7.37;5.83;;;15.70;55.30;;;;;;5110821;27;20661;-79
2022/04/17 10:01:49;;;;;;;8.77;6.28;;;15.70;54.10;;;;;;5093036;27;20307;-79
2022/04/17 10:04:19;;;;;;;8.50;5.90;;;15.70;54.60;;;;;;5100399;27;20047;-79
2022/04/17 10:06:50;;;;;;;7.88;5.40;;;15.80;53.70;;;;;;5092117;27;20109;-79
2022/04/17 10:09:17;;;;;;;8.18;5.72;;;15.80;55.10;;;;;;5092047;27;20502;-79
2022/04/17 10:11:43;;;;;;;6.82;5.15;;;16.00;53.70;;;;;;5094576;27;20269;-78
2022/04/17 10:14:12;;;;;;;7.43;5.15;;;16.00;53.10;;;;;;5125791;27;20130;-77
2022/04/17 10:16:42;;;;;;;7.22;5.20;;;16.00;52.70;;;;;;5111599;27;20048;-80
2022/04/17 10:19:13;;;;;;;7.07;5.10;;;16.00;51.60;;;;;;5127749;27;20053;-80
2022/04/17 10:21:40;;;;;;;6.38;4.93;;;16.10;51.40;;;;;;5128008;27;20505;-78
2022/04/17 10:24:10;;;;;;;7.70;4.72;;;16.20;50.50;;;;;;5125944;27;20066;-79
2022/04/17 10:26:41;;;;;;;6.50;4.93;;;16.20;50.30;;;;;;5107833;27;20051;-79
2022/04/17 10:29:10;;;;;;;;;;;16.40;50.30;;;;;;5110286;27;20125;-79
2022/04/17 10:31:45;;;;;;;6.32;5.25;;;16.50;50.30;;;;;;5128194;27;19919;-79
2022/04/17 10:34:26;;;;;;;6.95;5.50;;;16.60;50.40;;;;;;5112321;27;20053;-79
2022/04/17 10:37:13;;;;;;;5.90;5.25;;;16.70;50.00;;;;;;5128532;27;20056;-80
2022/04/17 10:39:46;;;;;;;6.78;5.20;;;16.80;49.40;;;;;;5129261;27;20524;-79
2022/04/17 10:42:12;;;;;;;7.95;4.97;;;16.70;50.30;;;;;;5111311;27;20393;-78
2022/04/17 10:44:45;;;;;;;7.03;5.47;;;16.80;49.90;;;;;;5128909;27;20747;-79
2022/04/17 10:47:20;;;;;;;7.30;5.53;;;16.90;49.20;;;;;;5110098;27;20121;-79
2022/04/17 10:49:57;;;;;;;7.10;5.20;;;16.80;48.80;;;;;;5111414;27;20046;-79
2022/04/17 10:52:33;;;;;;;6.88;5.70;;;16.70;48.50;;;;;;5109866;27;20057;-80
2022/04/17 10:55:11;;;;;;;9.18;4.97;;;16.70;47.70;;;;;;5147570;27;20456;-79
2022/04/17 10:57:48;;;;;;;7.72;5.60;;;16.70;49.40;;;;;;5111258;27;20042;-78
2022/04/17 11:00:36;;;;;;;8.13;5.63;;;16.90;48.10;;;;;;5109952;27;20394;-77
2022/04/17 11:03:09;;;;;;;8.18;5.00;;;17.00;46.10;;;;;;5079721;27;20047;-79
2022/04/17 11:08:26;;;;;;;6.13;4.65;;;16.60;46.50;;;;;;5127987;27;20733;-77
2022/04/17 11:10:54;;;;;;;6.38;4.45;;;16.60;46.30;;;;;;5110236;27;20042;-80
2022/04/17 11:13:21;;;;;;;6.75;4.78;;;16.70;47.10;;;;;;5127812;27;20051;-80
2022/04/17 11:15:59;;;;;;;6.18;4.25;;;16.80;47.00;;;;;;5111573;27;20050;-80
2022/04/17 11:18:27;;;;;;;6.15;4.25;;;16.90;46.30;;;;;;5124433;27;20050;-74
2022/04/17 11:20:55;;;;;;;7.22;4.32;;;16.90;44.50;;;;;;5125870;27;20077;-77
2022/04/17 11:23:59;;;;;;;5.88;4.07;;;17.00;44.20;;;;;;5127564;27;20495;-79
2022/04/17 11:26:53;;;;;;;7.78;4.30;;;17.00;44.70;;;;;;5123570;27;20058;-80
2022/04/17 11:29:48;;;;;;;6.00;4.65;;;17.10;43.80;;;;;;5108854;27;20111;-78
2022/04/17 11:32:16;;;;;;;6.20;4.20;;;17.10;43.60;;;;;;5144360;27;20479;-79
2022/04/17 11:34:52;;;;;;;6.10;4.28;;;17.10;44.80;;;;;;5127735;27;20581;-78
2022/04/17 11:37:23;;;;;;;7.78;4.35;;;17.20;43.40;;;;;;5127241;27;20051;-78
2022/04/17 11:39:50;;;;;;;6.53;4.57;;;17.20;44.30;;;;;;5127329;27;20054;-79
2022/04/17 11:42:17;;;;;;;7.75;4.38;;;17.20;43.80;;;;;;5110307;27;20043;-79
2022/04/17 11:44:44;;;;;;;7.03;4.30;;;17.30;44.60;;;;;;5110012;27;20042;-79
2022/04/17 11:47:22;;;;;;;7.40;4.78;;;17.30;43.90;;;;;;5110876;27;20125;-81
2022/04/17 11:49:49;;;;;;;5.82;4.40;;;17.30;43.70;;;;;;5110264;27;20129;-79
2022/04/17 11:52:16;;;;;;;6.38;5.10;;;17.30;43.60;;;;;;5105782;27;20085;-76
2022/04/17 11:54:43;;;;;;;6.25;4.40;;;17.50;43.70;;;;;;5126854;27;20046;-82
2022/04/17 11:57:10;;;;;;;6.72;4.32;;;17.60;43.80;;;;;;5124296;27;20121;-82
2022/04/17 11:59:46;;;;;;;6.20;4.57;;;17.60;44.00;;;;;;5106640;27;20696;-80
2022/04/17 12:02:14;;;;;;;7.38;4.50;;;17.70;43.30;;;;;;5090665;27;20112;-81
2022/04/17 12:04:42;;;;;;;6.20;4.60;;;17.70;42.90;;;;;;5145359;27;20434;-80
2022/04/17 12:07:11;;;;;;;7.53;4.43;;;17.80;41.90;;;;;;5093066;27;20054;-79
2022/04/17 12:09:38;;;;;;;6.35;4.47;;;17.70;42.00;;;;;;5125928;27;20038;-79
2022/04/17 12:12:14;;;;;;;6.70;4.55;;;17.70;41.60;;;;;;5108372;27;20060;-77
2022/04/17 12:14:41;;;;;;;6.50;4.18;;;17.70;41.10;;;;;;5105811;27;20054;-77
2022/04/17 12:17:07;;;;;;;6.55;4.47;;;17.70;41.60;;;;;;5126361;27;20054;-77
2022/04/17 12:19:33;;;;;;;8.18;5.18;;;17.70;41.50;;;;;;5091446;27;20039;-77
2022/04/17 12:22:04;;;;;;;6.63;4.43;;;17.70;41.30;;;;;;5109680;27;20396;-79
2022/04/17 12:24:29;;;;;;;7.05;4.75;;;17.60;41.60;;;;;;5109204;27;20144;-80
2022/04/17 12:26:55;;;;;;;7.70;4.75;;;17.60;42.50;;;;;;5109393;27;20508;-80
2022/04/17 12:29:21;;;;;;;6.93;5.15;;;17.70;42.60;;;;;;5125014;27;20042;-78
2022/04/17 12:31:47;;;;;;;7.05;5.30;;;17.80;41.20;;;;;;5111424;27;20046;-76
2022/04/17 12:34:19;;;;;;;6.25;4.78;;;17.90;41.00;;;;;;5093854;27;20039;-78
2022/04/17 12:36:46;;;;;;;7.03;4.90;;;17.90;40.20;;;;;;5097002;27;20383;-79
2022/04/17 12:39:12;;;;;;;7.45;5.35;;;17.90;42.10;;;;;;5110926;27;20500;-80
2022/04/17 12:41:42;;;;;;;9.02;6.00;;;18.10;43.20;;;;;;5128682;27;20076;-80
2022/04/17 12:44:11;;;;;;;7.38;5.38;;;18.20;41.80;;;;;;5130282;27;20438;-79
2022/04/17 12:46:42;;;;;;;6.72;5.38;;;18.30;42.80;;;;;;5113131;27;20038;-79
2022/04/17 12:49:18;;;;;;;6.80;5.55;;;18.30;41.80;;;;;;5113625;27;20408;-77
2022/04/17 12:51:55;;;;;;;7.88;5.50;;;18.50;42.80;;;;;;5147598;27;20412;-81
2022/04/17 12:54:21;;;;;;;9.02;5.72;;;18.50;42.30;;;;;;5112737;27;20038;-80
2022/04/17 12:56:47;;;;;;;7.53;5.78;;;18.60;42.70;;;;;;5112006;27;20122;-78
2022/04/17 12:59:19;;;;;;;6.88;5.57;;;18.70;42.30;;;;;;5129770;27;20046;-79
2022/04/17 13:01:49;;;;;;;7.85;5.53;;;18.70;42.60;;;;;;5130220;27;20069;-78
2022/04/17 13:04:20;;;;;;;7.53;5.38;;;18.80;42.20;;;;;;5112289;27;20161;-79
2022/04/17 13:06:48;;;;;;;7.63;5.97;;;18.90;41.50;;;;;;5112746;27;20045;-79